Time;durP1;ratioP1;P1;durP2;ratioP2;P2;SDS_P1;SDS_P2;PMS_P1;PMS_P2;Temp;Humidity;BMP_temperature;BMP_pressure;BME280_temperature;BME280_humidity;BME280_pressure;Samples;Min_cycle;Max_cycle;Signal;HPM_P1;HPM_P2
2022/10/07 00:01:25;;;;;;;;;;;9.80;99.90;;;;;;5099010;28;19904;-76
2022/10/07 00:03:53;;;;;;;;;;;9.70;99.90;;;;;;5100132;28;19911;-76
2022/10/07 00:06:20;;;;;;;;;;;9.70;99.90;;;;;;5101117;28;19915;-76
2022/10/07 00:08:48;;;;;;;;;;;9.40;99.90;;;;;;5100525;28;19918;-76
2022/10/07 00:11:20;;;;;;;;;;;10.00;99.90;;;;;;5098903;28;20146;-76
2022/10/07 00:13:47;;;;;;;;;;;9.60;99.90;;;;;;5097579;28;19919;-75
2022/10/07 00:16:16;;;;;;;;;;;11.20;99.90;;;;;;5100061;28;19903;-76
2022/10/07 00:18:42;;;;;;;;;;;9.50;99.90;;;;;;5101673;28;19991;-75
2022/10/07 00:21:10;;;;;;;;;;;9.50;99.90;;;;;;5100284;28;19916;-76
2022/10/07 00:23:37;;;;;;;;;;;9.40;99.90;;;;;;5099430;28;20041;-76
2022/10/07 00:26:08;;;;;;;;;;;9.40;99.90;;;;;;5101067;28;20030;-76
2022/10/07 00:28:34;;;;;;;;;;;9.50;99.90;;;;;;5102737;28;19915;-77
2022/10/07 00:31:00;;;;;;;;;;;9.40;99.90;;;;;;5080994;28;19908;-76
2022/10/07 00:33:34;;;;;;;;;;;9.40;99.90;;;;;;5098983;28;19904;-76
2022/10/07 00:36:00;;;;;;;;;;;9.40;99.90;;;;;;5100516;28;19904;-76
2022/10/07 00:38:26;;;;;;;;;;;9.40;99.90;;;;;;5081254;28;20389;-76
2022/10/07 00:40:52;;;;;;;;;;;9.30;99.90;;;;;;5099061;28;19904;-76
2022/10/07 00:43:26;;;;;;;;;;;9.40;99.90;;;;;;5100341;28;19915;-76
2022/10/07 00:45:57;;;;;;;;;;;9.10;99.90;;;;;;5098477;28;20525;-77
2022/10/07 00:48:33;;;;;;;;;;;9.40;99.90;;;;;;5098749;28;20259;-76
2022/10/07 00:51:00;;;;;;;;;;;9.40;99.90;;;;;;5078920;28;19908;-76
2022/10/07 00:53:30;;;;;;;;;;;9.40;99.90;;;;;;5083053;28;19911;-77
2022/10/07 00:55:56;;;;;;;;;;;9.50;99.90;;;;;;5102267;28;19908;-77
2022/10/07 00:58:25;;;;;;;;;;;6.90;99.90;;;;;;5101787;28;19904;-77
2022/10/07 01:00:56;;;;;;;;;;;9.50;99.90;;;;;;5102522;28;19934;-77
2022/10/07 01:03:23;;;;;;;;;;;7.20;99.90;;;;;;5082987;28;20003;-77
2022/10/07 01:05:49;;;;;;;;;;;9.50;99.90;;;;;;5099288;28;20223;-76
2022/10/07 01:08:15;;;;;;;;;;;9.50;99.90;;;;;;5099961;28;19904;-77
2022/10/07 01:11:12;;;;;;;;;;;9.50;99.90;;;;;;5099674;28;20128;-76
2022/10/07 01:13:50;;;;;;;;;;;9.40;99.90;;;;;;4997845;28;19928;-77
2022/10/07 01:16:21;;;;;;;;;;;9.30;99.90;;;;;;4981947;28;19910;-76
2022/10/07 01:19:09;;;;;;;;;;;9.40;99.90;;;;;;4999904;28;19906;-76
2022/10/07 01:21:40;;;;;;;;;;;9.20;99.90;;;;;;5001488;28;19906;-76
2022/10/07 01:24:41;;;;;;;;;;;9.40;99.90;;;;;;5001231;28;19964;-77
2022/10/07 01:27:13;;;;;;;;;;;9.50;99.90;;;;;;4941549;29;19921;-77
2022/10/07 01:29:42;;;;;;;;;;;9.50;99.90;;;;;;4923047;29;19907;-76
2022/10/07 01:32:13;;;;;;;;;;;9.50;99.90;;;;;;4920854;29;19906;-76
2022/10/07 01:34:40;;;;;;;;;;;9.60;99.90;;;;;;4937792;29;20301;-76
2022/10/07 01:37:10;;;;;;;;;;;9.70;99.90;;;;;;4937123;29;20005;-77
2022/10/07 01:39:39;;;;;;;;;;;9.60;99.90;;;;;;4921644;29;20058;-76
2022/10/07 01:42:05;;;;;;;;;;;9.70;99.90;;;;;;4936344;29;20710;-76
2022/10/07 01:44:32;;;;;;;;;;;9.70;99.90;;;;;;4937516;29;19917;-76
2022/10/07 01:46:58;;;;;;;;;;;9.70;99.90;;;;;;4937156;29;19926;-76
2022/10/07 01:49:25;;;;;;;;;;;9.60;99.90;;;;;;4942327;28;19922;-77
2022/10/07 01:52:01;;;;;;;;;;;9.70;99.90;;;;;;5021667;28;19917;-78
2022/10/07 01:54:37;;;;;;;;;;;9.70;99.90;;;;;;5021576;28;19990;-76
2022/10/07 01:57:31;;;;;;;;;;;9.70;99.90;;;;;;5037592;28;20000;-76
2022/10/07 02:00:13;;;;;;;;;;;9.60;99.90;;;;;;5037549;28;19905;-76
2022/10/07 02:02:57;;;;;;;;;;;9.60;99.90;;;;;;5101684;28;19935;-76
2022/10/07 02:05:46;;;;;;;;;;;9.60;99.90;;;;;;5082870;28;19913;-77
2022/10/07 02:08:43;;;;;;;;;;;9.50;99.90;;;;;;4999767;28;19981;-76
2022/10/07 02:11:21;;;;;;;;;;;9.50;99.90;;;;;;4940274;29;19962;-76
2022/10/07 02:14:08;;;;;;;;;;;9.10;99.90;;;;;;4923293;29;19919;-76
2022/10/07 02:16:46;;;;;;;;;;;9.40;99.90;;;;;;4940673;29;20168;-77
2022/10/07 02:19:17;;;;;;;;;;;9.60;99.90;;;;;;4925372;29;19907;-76
2022/10/07 02:21:45;;;;;;;;;;;9.90;99.90;;;;;;4941830;29;20468;-76
2022/10/07 02:24:14;;;;;;;;;;;9.50;99.90;;;;;;4939610;29;20139;-76
2022/10/07 02:26:45;;;;;;;;;;;9.50;99.90;;;;;;4941769;29;19915;-77
2022/10/07 02:29:15;;;;;;;;;;;9.50;99.90;;;;;;4941208;29;20370;-77
2022/10/07 02:31:42;;;;;;;;;;;9.50;99.90;;;;;;4943536;29;19917;-76
2022/10/07 02:34:10;;;;;;;;;;;9.40;99.90;;;;;;4945237;29;19907;-77
2022/10/07 02:36:38;;;;;;;;;;;10.70;99.90;;;;;;4928266;29;19933;-77
2022/10/07 02:39:04;;;;;;;;;;;9.40;99.90;;;;;;4944261;29;19976;-77
2022/10/07 02:41:35;;;;;;;;;;;9.40;99.90;;;;;;4927824;29;19917;-76
2022/10/07 02:44:12;;;;;;;;;;;9.40;99.90;;;;;;4942266;28;20156;-76
2022/10/07 02:46:43;;;;;;;;;;;9.40;99.90;;;;;;5064948;28;20409;-77
2022/10/07 02:49:10;;;;;;;;;;;7.00;99.90;;;;;;5099456;28;19908;-77
2022/10/07 02:51:39;;;;;;;;;;;9.40;99.90;;;;;;5100364;28;19965;-77
2022/10/07 02:54:05;;;;;;;;;;;9.40;99.90;;;;;;5100477;28;20158;-76
2022/10/07 02:56:32;;;;;;;;;;;9.40;99.90;;;;;;5081895;28;19908;-76
2022/10/07 02:59:00;;;;;;;;;;;9.40;99.90;;;;;;5100970;28;20014;-77
2022/10/07 03:01:29;;;;;;;;;;;9.40;99.90;;;;;;5100271;28;19964;-77
2022/10/07 03:03:57;;;;;;;;;;;10.20;99.90;;;;;;5097927;28;19911;-77
2022/10/07 03:06:27;;;;;;;;;;;9.40;99.90;;;;;;5081929;28;19947;-76
2022/10/07 03:08:55;;;;;;;;;;;9.40;99.90;;;;;;5082727;28;20413;-77
2022/10/07 03:11:22;;;;;;;;;;;9.40;99.90;;;;;;5100101;28;19908;-78
2022/10/07 03:13:47;;;;;;;;;;;9.40;99.90;;;;;;5081685;28;20342;-77
2022/10/07 03:16:13;;;;;;;;;;;9.40;99.90;;;;;;5099659;28;19904;-77
2022/10/07 03:18:40;;;;;;;;;;;6.30;99.90;;;;;;5099520;28;19936;-75
2022/10/07 03:21:06;;;;;;;;;;;9.20;99.90;;;;;;5078684;28;19904;-77
2022/10/07 03:23:32;;;;;;;;;;;8.80;99.90;;;;;;5079454;28;19911;-77
2022/10/07 03:25:58;;;;;;;;;;;9.20;99.90;;;;;;5097200;28;19995;-78
2022/10/07 03:28:26;;;;;;;;;;;9.20;99.90;;;;;;5097762;28;19904;-77
2022/10/07 03:30:52;;;;;;;;;;;9.10;99.90;;;;;;5098165;28;19914;-77
2022/10/07 03:33:19;;;;;;;;;;;9.00;99.90;;;;;;5103619;28;19971;-76
2022/10/07 03:35:46;;;;;;;;;;;8.00;99.90;;;;;;5103312;28;19907;-77
2022/10/07 03:38:11;;;;;;;;;;;8.90;99.90;;;;;;5083765;28;19904;-77
2022/10/07 03:40:38;;;;;;;;;;;8.90;99.90;;;;;;5101609;28;19942;-77
2022/10/07 03:43:04;;;;;;;;;;;8.80;99.90;;;;;;5101423;28;19908;-76
2022/10/07 03:45:30;;;;;;;;;;;8.80;99.90;;;;;;5102474;28;19915;-76
2022/10/07 03:47:57;;;;;;;;;;;7.20;99.90;;;;;;5102218;28;19904;-76
2022/10/07 03:50:25;;;;;;;;;;;7.20;99.90;;;;;;5101362;28;19910;-76
2022/10/07 03:52:57;;;;;;;;;;;8.80;99.90;;;;;;5083246;28;19912;-77
2022/10/07 03:55:23;;;;;;;;;;;8.80;99.90;;;;;;5100508;28;19911;-77
2022/10/07 03:57:48;;;;;;;;;;;8.70;99.90;;;;;;5083758;28;19903;-77
2022/10/07 04:00:14;;;;;;;;;;;8.20;99.90;;;;;;5101037;28;19904;-77
2022/10/07 04:02:40;;;;;;;;;;;8.70;99.90;;;;;;5101362;28;20124;-77
2022/10/07 04:05:07;;;;;;;;;;;8.60;99.90;;;;;;5102436;28;19912;-77
2022/10/07 04:07:34;;;;;;;;;;;8.50;99.90;;;;;;5103309;28;19919;-77
2022/10/07 04:09:59;;;;;;;;;;;9.10;99.90;;;;;;5102402;28;19919;-77
2022/10/07 04:12:25;;;;;;;;;;;9.20;99.90;;;;;;5101991;28;19912;-77
2022/10/07 04:14:51;;;;;;;;;;;8.60;99.90;;;;;;5103610;28;20643;-76
2022/10/07 04:17:22;;;;;;;;;;;8.60;99.90;;;;;;5082809;28;19915;-77
2022/10/07 04:19:47;;;;;;;;;;;9.20;99.90;;;;;;5084211;28;19926;-77
2022/10/07 04:22:13;;;;;;;;;;;8.50;99.90;;;;;;5098845;28;19916;-76
2022/10/07 04:24:39;;;;;;;;;;;8.60;99.90;;;;;;5074743;28;20291;-77
2022/10/07 04:27:04;;;;;;;;;;;8.30;99.90;;;;;;5092770;28;19927;-77
2022/10/07 04:29:30;;;;;;;;;;;8.50;99.90;;;;;;5092770;28;19923;-77
2022/10/07 04:31:57;;;;;;;;;;;11.10;99.90;;;;;;5091494;28;20314;-77
2022/10/07 04:34:27;;;;;;;;;;;8.50;99.90;;;;;;5091742;28;19908;-77
2022/10/07 04:36:53;;;;;;;;;;;7.50;99.90;;;;;;5073837;28;20422;-77
2022/10/07 04:39:19;;;;;;;;;;;8.60;99.90;;;;;;5092931;28;19908;-77
2022/10/07 04:41:44;;;;;;;;;;;8.80;99.90;;;;;;5076760;28;19908;-77
2022/10/07 04:44:10;;;;;;;;;;;8.80;99.90;;;;;;5097582;28;20162;-77
2022/10/07 04:46:56;;;;;;;;;;;9.10;99.90;;;;;;5035342;28;19917;-77
2022/10/07 04:49:21;;;;;;;;;;;8.50;99.90;;;;;;5034818;28;19943;-77
2022/10/07 04:51:48;;;;;;;;;;;8.70;99.90;;;;;;5018840;28;19968;-78
2022/10/07 04:54:20;;;;;;;;;;;9.30;99.90;;;;;;5036656;28;20307;-77
2022/10/07 04:56:47;;;;;;;;;;;8.70;99.90;;;;;;5015756;28;19909;-77
2022/10/07 04:59:16;;;;;;;;;;;8.70;99.90;;;;;;5036008;28;20435;-77
2022/10/07 05:01:41;;;;;;;;;;;8.70;99.90;;;;;;5036010;28;20003;-77
2022/10/07 05:04:07;;;;;;;;;;;8.70;99.90;;;;;;5035431;28;19944;-76
2022/10/07 05:06:34;;;;;;;;;;;9.40;99.90;;;;;;5034312;28;19909;-76
2022/10/07 05:09:00;;;;;;;;;;;8.70;99.90;;;;;;5036584;28;19932;-77
2022/10/07 05:11:26;;;;;;;;;;;8.70;99.90;;;;;;5032768;28;20295;-77
2022/10/07 05:13:52;;;;;;;;;;;8.70;99.90;;;;;;5034693;28;19917;-76
2022/10/07 05:16:18;;;;;;;;;;;11.30;99.90;;;;;;5034340;28;19916;-78
2022/10/07 05:18:46;;;;;;;;;;;8.80;99.90;;;;;;5085259;28;19904;-78
2022/10/07 05:21:12;;;;;;;;;;;8.70;99.90;;;;;;5081487;28;19911;-77
2022/10/07 05:23:38;;;;;;;;;;;8.80;99.90;;;;;;5078070;28;20100;-76
2022/10/07 05:26:13;;;;;;;;;;;8.40;99.90;;;;;;5079115;28;19919;-78
2022/10/07 05:28:40;;;;;;;;;;;8.80;99.90;;;;;;5078796;28;20014;-77
2022/10/07 05:31:15;;;;;;;;;;;8.80;99.90;;;;;;5092878;28;19919;-77
2022/10/07 05:33:41;;;;;;;;;;;7.50;99.90;;;;;;5091955;28;20424;-77
2022/10/07 05:36:12;;;;;;;;;;;9.10;99.90;;;;;;5073394;28;19967;-77
2022/10/07 05:38:37;;;;;;;;;;;8.90;99.90;;;;;;5092195;28;19916;-76
2022/10/07 05:41:06;;;;;;;;;;;8.90;99.90;;;;;;5072548;28;20429;-77
2022/10/07 05:43:33;;;;;;;;;;;7.60;99.90;;;;;;5072043;28;19908;-77
2022/10/07 05:45:59;;;;;;;;;;;8.90;99.90;;;;;;5087585;28;19923;-76
2022/10/07 05:48:30;;;;;;;;;;;9.10;99.90;;;;;;5090336;28;20279;-77
2022/10/07 05:51:00;;;;;;;;;;;9.10;99.90;;;;;;5070107;28;19951;-77
2022/10/07 05:53:26;;;;;;;;;;;9.40;99.90;;;;;;5088947;28;20377;-77
2022/10/07 05:55:53;;;;;;;;;;;9.20;99.90;;;;;;5088259;28;20112;-77
2022/10/07 05:58:19;;;;;;;;;;;8.30;99.90;;;;;;5087350;28;19904;-77
2022/10/07 06:00:53;;;;;;;;;;;9.20;99.90;;;;;;5068328;28;19979;-77
2022/10/07 06:03:19;;;;;;;;;;;9.30;99.90;;;;;;5091105;28;19914;-76
2022/10/07 06:05:45;;;;;;;;;;;8.90;99.90;;;;;;5088509;28;19912;-76
2022/10/07 06:08:11;;;;;;;;;;;9.20;99.90;;;;;;5069834;28;19908;-76
2022/10/07 06:13:22;;;;;;;;;;;9.30;99.90;;;;;;5090025;28;19977;-76
2022/10/07 06:15:49;;;;;;;;;;;9.90;99.90;;;;;;5069872;28;19904;-77
2022/10/07 06:18:15;;;;;;;;;;;9.40;99.90;;;;;;5086785;28;19966;-77
2022/10/07 06:20:41;;;;;;;;;;;9.50;99.90;;;;;;5086815;28;19940;-77
2022/10/07 06:23:06;;;;;;;;;;;10.30;99.90;;;;;;5086618;28;19904;-77
2022/10/07 06:25:33;;;;;;;;;;;9.70;99.90;;;;;;5087114;28;20429;-77
2022/10/07 06:28:02;;;;;;;;;;;7.80;99.90;;;;;;5088861;28;19915;-77
2022/10/07 06:30:28;;;;;;;;;;;9.60;99.90;;;;;;5088764;28;19908;-77
2022/10/07 06:32:55;;;;;;;;;;;9.60;99.90;;;;;;5073903;28;19980;-76
2022/10/07 06:35:21;;;;;;;;;;;8.80;99.90;;;;;;5074034;28;19915;-77
2022/10/07 06:37:47;;;;;;;;;;;9.70;99.90;;;;;;5090796;28;19908;-77
2022/10/07 06:40:13;;;;;;;;;;;9.70;99.90;;;;;;5072772;28;19904;-78
2022/10/07 06:42:54;;;;;;;;;;;9.70;99.90;;;;;;5073674;28;20103;-77
2022/10/07 06:45:19;;;;;;;;;;;8.70;99.90;;;;;;5088929;28;20305;-78
2022/10/07 06:47:46;;;;;;;;;;;10.00;99.90;;;;;;5089443;28;19908;-77
2022/10/07 06:50:12;;;;;;;;;;;10.10;99.90;;;;;;5072471;28;19974;-77
2022/10/07 06:52:37;;;;;;;;;;;10.20;99.90;;;;;;5084734;28;20389;-77
2022/10/07 06:55:03;;;;;;;;;;;10.30;99.90;;;;;;5069006;28;19939;-77
2022/10/07 06:57:29;;;;;;;;;;;8.20;99.90;;;;;;5087820;28;19994;-77
2022/10/07 06:59:55;;;;;;;;;;;10.50;99.90;;;;;;5086252;28;20033;-78
2022/10/07 07:02:20;;;;;;;;;;;10.80;99.90;;;;;;5067744;28;20231;-78
2022/10/07 07:04:46;;;;;;;;;;;11.00;99.90;;;;;;5088416;28;20216;-77
2022/10/07 07:07:12;;;;;;;;;;;10.90;99.90;;;;;;5087837;28;19922;-77
2022/10/07 07:09:37;;;;;;;;;;;13.70;99.90;;;;;;5088347;28;19995;-78
2022/10/07 07:12:03;;;;;;;;;;;10.90;99.90;;;;;;5090372;28;19996;-77
2022/10/07 07:14:34;;;;;;;;;;;11.10;99.90;;;;;;5094749;28;19908;-77
2022/10/07 07:17:01;;;;;;;;;;;11.10;99.90;;;;;;5095957;28;19983;-77
2022/10/07 07:19:27;;;;;;;;;;;11.10;99.90;;;;;;5076085;28;19912;-77
2022/10/07 07:21:53;;;;;;;;;;;11.10;99.90;;;;;;5068170;28;19969;-77
2022/10/07 07:24:19;;;;;;;;;;;11.30;99.90;;;;;;5086157;28;19911;-77
2022/10/07 07:26:45;;;;;;;;;;;11.10;99.90;;;;;;5085891;28;19959;-78
2022/10/07 07:29:11;;;;;;;;;;;11.50;99.90;;;;;;5085565;28;20150;-79
2022/10/07 07:31:37;;;;;;;;;;;11.70;99.90;;;;;;5066042;28;19919;-78
2022/10/07 07:34:06;;;;;;;;;;;11.90;99.90;;;;;;5084707;28;19956;-82
2022/10/07 07:36:36;;;;;;;;;;;12.00;99.90;;;;;;5071987;28;19919;-82
2022/10/07 07:39:08;;;;;;;;;;;12.60;99.90;;;;;;5086904;28;20234;-78
2022/10/07 07:41:35;;;;;;;;;;;12.20;99.90;;;;;;5085667;28;20006;-78
2022/10/07 07:44:02;;;;;;;;;;;12.30;99.90;;;;;;5084541;28;19908;-81
2022/10/07 07:46:32;;;;;;;;;;;12.50;99.90;;;;;;5065433;28;19912;-77
2022/10/07 07:48:57;;;;;;;;;;;12.70;99.90;;;;;;5048070;28;19908;-80
2022/10/07 07:51:23;;;;;;;;;;;12.60;99.90;;;;;;5081992;28;19911;-79
2022/10/07 07:53:49;;;;;;;;;;;12.80;99.90;;;;;;5082028;28;19931;-78
2022/10/07 07:56:16;;;;;;;;;;;12.90;99.90;;;;;;5082114;28;20242;-77
2022/10/07 07:58:42;;;;;;;;;;;12.90;99.90;;;;;;5082326;28;20373;-78
2022/10/07 08:01:08;;;;;;;;;;;13.00;99.90;;;;;;5082442;28;19908;-80
2022/10/07 08:03:39;;;;;;;;;;;13.10;99.90;;;;;;5081776;28;20158;-78
2022/10/07 08:06:05;;;;;;;;;;;12.10;99.90;;;;;;5085419;28;20378;-77
2022/10/07 08:08:31;;;;;;;;;;;13.50;99.90;;;;;;5091609;28;19908;-78
2022/10/07 08:11:05;;;;;;;;;;;13.80;99.90;;;;;;5091814;28;19922;-78
2022/10/07 08:13:31;;;;;;;;;;;13.90;99.90;;;;;;5092916;28;20251;-78
2022/10/07 08:15:57;;;;;;;;;;;14.10;99.90;;;;;;5089199;28;19912;-77
2022/10/07 08:18:23;;;;;;;;;;;14.20;99.90;;;;;;5085035;28;20001;-78
2022/10/07 08:20:58;;;;;;;;;;;14.20;99.90;;;;;;5084490;28;19979;-77
2022/10/07 08:23:25;;;;;;;;;;;14.30;99.90;;;;;;5083539;28;19904;-79
2022/10/07 08:25:54;;;;;;;;;;;14.30;99.90;;;;;;5064816;28;20318;-77
2022/10/07 08:28:20;;;;;;;;;;;14.60;99.90;;;;;;5082890;28;19912;-78
2022/10/07 08:30:50;;;;;;;;;;;14.70;99.90;;;;;;5083732;28;19908;-77
2022/10/07 08:33:17;;;;;;;;;;;14.70;99.90;;;;;;5082793;28;19904;-84
2022/10/07 08:35:42;;;;;;;;;;;12.70;99.90;;;;;;5082066;28;19998;-77
2022/10/07 08:38:08;;;;;;;;;;;15.20;99.90;;;;;;5081757;28;20383;-83
2022/10/07 08:40:34;;;;;;;;;;;15.40;99.90;;;;;;5063595;28;19904;-76
2022/10/07 08:43:00;;;;;;;;;;;15.40;99.90;;;;;;5063714;28;19903;-78
2022/10/07 08:45:30;;;;;;;;;;;15.60;99.90;;;;;;5081532;28;20314;-78
2022/10/07 08:47:58;;;;;;;;;;;15.70;99.90;;;;;;5062713;28;20240;-76
2022/10/07 08:50:25;;;;;;;;;;;15.80;99.90;;;;;;5082576;28;19904;-77
2022/10/07 08:53:00;;;;;;;;;;;16.00;99.90;;;;;;5064403;28;20367;-79
2022/10/07 08:55:32;;;;;;;;;;;16.10;99.90;;;;;;5064526;28;20365;-81
2022/10/07 08:58:03;;;;;;;;;;;16.10;99.90;;;;;;5062692;28;19908;-78
2022/10/07 09:00:34;;;;;;;;;;;16.30;99.90;;;;;;5063500;28;20445;-77
2022/10/07 09:03:06;;;;;;;;;;;16.50;99.90;;;;;;5082103;28;20022;-79
2022/10/07 09:05:39;;;;;;;;;;;16.80;99.90;;;;;;5082078;28;20120;-78
2022/10/07 09:08:15;;;;;;;;;;;17.10;99.90;;;;;;5082253;28;19904;-81
2022/10/07 09:10:47;;;;;;;;;;;17.40;99.90;;;;;;5081728;28;20283;-79
2022/10/07 09:13:20;;;;;;;;;;;17.60;99.90;;;;;;5081588;28;19943;-80
2022/10/07 09:16:09;;;;;;;;;;;17.80;99.90;;;;;;5082064;28;20104;-77
2022/10/07 09:18:43;;;;;;;;;;;18.80;99.90;;;;;;5080628;28;20073;-86
2022/10/07 09:21:26;;;;;;;;;;;18.50;99.30;;;;;;5080197;28;20096;-85
2022/10/07 09:23:55;;;;;;;;;;;18.70;97.60;;;;;;5081200;28;20002;-83
2022/10/07 09:26:21;;;;;;;;;;;21.60;97.10;;;;;;5062138;28;20102;-77
2022/10/07 09:28:47;;;;;;;;;;;19.00;95.70;;;;;;5081192;28;20353;-76
2022/10/07 09:31:13;;;;;;;;;;;19.30;95.80;;;;;;5079972;28;20406;-82
2022/10/07 09:33:44;;;;;;;;;;;19.50;94.40;;;;;;5064704;28;19973;-79
2022/10/07 09:36:11;;;;;;;;;;;19.90;94.40;;;;;;5081779;28;19904;-77
2022/10/07 09:38:38;;;;;;;;;;;19.80;92.10;;;;;;5064932;28;20256;-82
2022/10/07 09:41:16;;;;;;;;;;;19.90;92.60;;;;;;5081381;28;19904;-83
2022/10/07 09:43:55;;;;;;;;;;;20.10;93.20;;;;;;5080546;28;19908;-81
2022/10/07 09:46:28;;;;;;;;;;;20.30;92.80;;;;;;5062284;28;20023;-79
2022/10/07 09:49:03;;;;;;;;;;;20.00;92.70;;;;;;5061502;28;20125;-80
2022/10/07 09:51:29;;;;;;;;;;;20.30;92.60;;;;;;5062340;28;20310;-77
2022/10/07 09:53:56;;;;;;;;;;;20.30;92.30;;;;;;5080378;28;19904;-84
2022/10/07 09:56:34;;;;;;;;;;;20.40;91.90;;;;;;5080570;28;19904;-77
2022/10/07 09:59:11;;;;;;;;;;;20.40;91.90;;;;;;5081213;28;20395;-80
2022/10/07 10:01:37;;;;;;;;;;;20.30;91.90;;;;;;5062972;28;19908;-77
2022/10/07 10:04:03;;;;;;;;;;;20.40;92.00;;;;;;5082921;28;19904;-86
2022/10/07 10:06:28;;;;;;;;;;;20.40;91.30;;;;;;5081032;28;20120;-80
2022/10/07 10:08:55;;;;;;;;;;;20.50;91.50;;;;;;5061538;28;19904;-78
2022/10/07 10:11:27;;;;;;;;;;;20.60;91.30;;;;;;5079258;28;20226;-79
2022/10/07 10:13:53;;;;;;;;;;;20.50;91.90;;;;;;5063585;28;20089;-80
2022/10/07 10:16:24;;;;;;;;;;;20.20;93.10;;;;;;5081638;28;19904;-78
2022/10/07 10:18:55;;;;;;;;;;;20.10;92.80;;;;;;5080925;28;19924;-77
2022/10/07 10:21:25;;;;;;;;;;;20.30;92.90;;;;;;5062963;28;19904;-77
2022/10/07 10:23:52;;;;;;;;;;;20.10;92.70;;;;;;5079093;28;19982;-81
2022/10/07 10:26:34;;;;;;;;;;;20.00;92.50;;;;;;5080277;28;19912;-77
2022/10/07 10:29:04;;;;;;;;;;;20.00;92.40;;;;;;5080293;28;19912;-79
2022/10/07 10:31:32;;;;;;;;;;;19.90;93.10;;;;;;5079807;28;19904;-80
2022/10/07 10:34:03;;;;;;;;;;;20.00;92.60;;;;;;5061480;28;20172;-76
2022/10/07 10:36:30;;;;;;;;;;;20.10;92.40;;;;;;5062661;28;20394;-77
2022/10/07 10:39:05;;;;;;;;;;;20.20;92.30;;;;;;5060013;28;19904;-81
2022/10/07 10:41:35;;;;;;;;;;;20.00;92.60;;;;;;5079420;28;19997;-84
2022/10/07 10:44:15;;;;;;;;;;;19.90;93.00;;;;;;5079396;28;19944;-90
2022/10/07 10:46:59;;;;;;;;;;;20.00;92.70;;;;;;5060772;28;20203;-84
2022/10/07 10:49:43;;;;;;;;;;;19.80;92.50;;;;;;5079324;28;19904;-76
2022/10/07 10:52:27;;;;;;;;;;;20.10;92.20;;;;;;5060997;28;19907;-77
2022/10/07 10:54:59;;;;;;;;;;;20.40;92.40;;;;;;5060529;28;20451;-80
2022/10/07 10:57:42;;;;;;;;;;;20.50;91.20;;;;;;5078534;28;20310;-79
2022/10/07 11:00:21;;;;;;;;;;;20.60;91.20;;;;;;5061392;28;19947;-80
2022/10/07 11:02:58;;;;;;;;;;;20.80;90.60;;;;;;5079493;28;20116;-76
2022/10/07 11:05:27;;;;;;;;;;;20.90;89.90;;;;;;5078531;28;19908;-76
2022/10/07 11:07:57;;;;;;;;;;;22.70;89.70;;;;;;5079299;28;19904;-81
2022/10/07 11:10:25;;;;;;;;;;;21.30;87.30;;;;;;5079733;28;19939;-82
2022/10/07 11:12:53;;;;;;;;;;;21.10;88.20;;;;;;5080250;28;19930;-76
2022/10/07 11:15:23;;;;;;;;;;;21.30;87.20;;;;;;5078338;28;19989;-80
2022/10/07 11:17:50;;;;;;;;;;;21.60;87.80;;;;;;5079185;28;19912;-84
2022/10/07 11:20:22;;;;;;;;;;;21.60;86.10;;;;;;5079261;28;20418;-77
2022/10/07 11:22:55;;;;;;;;;;;22.00;86.10;;;;;;5061359;28;19916;-77
2022/10/07 11:25:36;;;;;;;;;;;22.00;84.30;;;;;;5059732;28;19919;-81
2022/10/07 11:28:07;;;;;;;;;;;22.20;82.90;;;;;;5078767;28;19912;-77
2022/10/07 11:30:43;;;;;;;;;;;22.50;82.50;;;;;;5078240;28;19923;-76
2022/10/07 11:33:16;;;;;;;;;;;23.00;81.30;;;;;;5061633;28;19904;-81
2022/10/07 11:35:46;;;;;;;;;;;23.30;80.20;;;;;;5083961;28;20389;-86
2022/10/07 11:38:28;;;;;;;;;;;23.20;79.70;;;;;;5084076;28;20153;-81
2022/10/07 11:40:59;;;;;;;;;;;23.10;78.30;;;;;;5068591;28;19904;-81
2022/10/07 11:43:40;;;;;;;;;;;23.40;78.10;;;;;;5066003;28;19990;-86
2022/10/07 11:46:13;;;;;;;;;;;23.10;75.90;;;;;;5063775;28;19963;-79
2022/10/07 11:48:42;;;;;;;;;;;23.30;77.60;;;;;;5080308;28;20500;-80
2022/10/07 11:51:09;;;;;;;;;;;23.60;77.00;;;;;;5080140;28;19911;-88
2022/10/07 11:53:38;;;;;;;;;;;22.30;73.70;;;;;;5062935;28;20007;-78
2022/10/07 11:56:13;;;;;;;;;;;23.00;72.70;;;;;;5064025;28;19903;-83
2022/10/07 11:58:39;;;;;;;;;;;24.10;72.70;;;;;;5082226;28;19904;-79
2022/10/07 12:01:23;;;;;;;;;;;24.40;72.20;;;;;;5082003;28;19965;-85
2022/10/07 12:03:49;;;;;;;;;;;24.60;71.20;;;;;;5063971;28;19931;-81
2022/10/07 12:06:15;;;;;;;;;;;25.40;73.60;;;;;;5082717;28;20028;-85
2022/10/07 12:08:41;;;;;;;;;;;24.50;71.00;;;;;;5081764;28;19904;-79
2022/10/07 12:11:10;;;;;;;;;;;24.90;69.50;;;;;;5082199;28;19911;-81
2022/10/07 12:13:42;;;;;;;;;;;25.00;68.30;;;;;;5083475;28;20379;-76
2022/10/07 12:16:37;;;;;;;;;;;25.10;68.80;;;;;;5064075;28;19936;-81
2022/10/07 12:19:06;;;;;;;;;;;25.30;67.80;;;;;;4980666;28;20488;-78
2022/10/07 12:21:50;;;;;;;;;;;25.00;67.30;;;;;;4979533;28;19909;-77
2022/10/07 12:24:15;;;;;;;;;;;25.00;67.70;;;;;;4979582;28;19932;-81
2022/10/07 12:26:44;;;;;;;;;;;25.10;66.50;;;;;;4981144;28;20467;-78
2022/10/07 12:29:28;;;;;;;;;;;25.10;65.80;;;;;;4982269;28;20231;-81
2022/10/07 12:31:53;;;;;;;;;;;24.00;64.90;;;;;;4982901;28;19932;-78
2022/10/07 12:34:40;;;;;;;;;;;24.50;66.70;;;;;;4983588;28;20567;-77
2022/10/07 12:37:24;;;;;;;;;;;24.40;67.10;;;;;;4980511;28;19906;-76
2022/10/07 12:39:50;;;;;;;;;;;24.70;67.30;;;;;;4964118;28;19905;-80
2022/10/07 12:42:16;;;;;;;;;;;24.70;66.70;;;;;;4979434;28;19906;-81
2022/10/07 12:44:50;;;;;;;;;;;24.70;66.90;;;;;;4980354;28;19960;-82
2022/10/07 12:47:27;;;;;;;;;;;24.70;67.70;;;;;;4980319;28;20020;-77
2022/10/07 12:49:57;;;;;;;;;;;27.40;68.60;;;;;;4964403;28;19906;-76
2022/10/07 12:52:44;;;;;;;;;;;24.80;66.50;;;;;;4981318;28;19909;-81
2022/10/07 12:55:14;;;;;;;;;;;25.00;66.00;;;;;;5017105;28;19912;-82
2022/10/07 12:57:41;;;;;;;;;;;25.20;66.90;;;;;;5081569;28;19930;-78
2022/10/07 13:00:23;;;;;;;;;;;25.40;66.20;;;;;;5063618;28;19908;-79
2022/10/07 13:03:08;;;;;;;;;;;25.50;65.40;;;;;;5062975;28;20394;-83
2022/10/07 13:05:52;;;;;;;;;;;25.50;65.10;;;;;;5080563;28;20100;-77
2022/10/07 13:08:20;;;;;;;;;;;25.80;65.00;;;;;;5081143;28;19905;-76
2022/10/07 13:10:59;;;;;;;;;;;26.00;63.80;;;;;;5081532;28;19904;-83
2022/10/07 13:13:45;;;;;;;;;;;26.20;63.60;;;;;;5064403;28;20291;-78
2022/10/07 13:16:14;;;;;;;;;;;26.10;62.80;;;;;;5060603;28;20350;-78
2022/10/07 13:18:45;;;;;;;;;;;26.10;62.10;;;;;;5061454;28;20025;-76
2022/10/07 13:21:18;;;;;;;;;;;26.00;63.00;;;;;;5079671;28;20402;-81
2022/10/07 13:23:49;;;;;;;;;;;25.40;61.40;;;;;;5080287;28;20524;-77
2022/10/07 13:26:14;;;;;;;;;;;26.40;61.40;;;;;;5080164;28;19946;-81
2022/10/07 13:28:46;;;;;;;;;;;26.70;61.80;;;;;;5062713;28;20005;-79
2022/10/07 13:31:16;;;;;;;;;;;26.90;60.50;;;;;;5081401;28;19912;-82
2022/10/07 13:33:43;;;;;;;;;;;27.00;61.10;;;;;;5082783;28;20310;-77
2022/10/07 13:36:15;;;;;;;;;;;27.20;62.00;;;;;;5064302;28;19904;-78
2022/10/07 13:38:40;;;;;;;;;;;27.00;59.60;;;;;;5081747;28;19904;-79
2022/10/07 13:41:06;;;;;;;;;;;27.50;60.20;;;;;;5081525;28;20274;-77
2022/10/07 13:43:35;;;;;;;;;;;27.80;60.10;;;;;;5063018;28;20002;-77
2022/10/07 13:46:03;;;;;;;;;;;27.90;59.20;;;;;;5062838;28;19911;-78
2022/10/07 13:48:34;;;;;;;;;;;24.50;57.10;;;;;;5080425;28;19908;-82
2022/10/07 13:51:00;;;;;;;;;;;26.40;57.60;;;;;;5062751;28;19904;-78
2022/10/07 13:53:30;;;;;;;;;;;28.10;59.90;;;;;;5063150;28;19908;-76
2022/10/07 13:56:07;;;;;;;;;;;28.20;58.60;;;;;;5081496;28;20613;-78
2022/10/07 13:58:34;;;;;;;;;;;28.40;58.00;;;;;;5081255;28;19904;-78
2022/10/07 14:01:02;;;;;;;;;;;28.70;58.10;;;;;;5080299;28;19912;-83
2022/10/07 14:03:28;;;;;;;;;;;27.60;56.90;;;;;;5079852;28;19907;-77
2022/10/07 14:05:53;;;;;;;;;;;28.60;58.70;;;;;;5079603;28;19923;-80
2022/10/07 14:08:20;;;;;;;;;;;29.00;58.90;;;;;;5079497;28;20648;-83
2022/10/07 14:10:49;;;;;;;;;;;29.00;57.30;;;;;;5060520;28;19915;-77
2022/10/07 14:13:15;;;;;;;;;;;29.40;57.40;;;;;;5061516;28;20007;-77
2022/10/07 14:15:46;;;;;;;;;;;29.50;56.70;;;;;;5061917;28;19904;-80
2022/10/07 14:18:13;;;;;;;;;;;29.20;56.70;;;;;;5063209;28;19908;-79
2022/10/07 14:20:42;;;;;;;;;;;29.40;57.20;;;;;;5061670;28;19911;-79
2022/10/07 14:23:29;;;;;;;;;;;29.10;57.00;;;;;;5080696;28;20298;-81
2022/10/07 14:26:00;;;;;;;;;;;29.40;56.70;;;;;;5081180;28;20303;-89
2022/10/07 14:28:30;;;;;;;;;;;29.80;56.40;;;;;;5062243;28;20416;-76
2022/10/07 14:37:00;;;;;;;;;;;28.80;57.20;;;;;;5079579;28;20420;-80
2022/10/07 14:39:46;;;;;;;;;;;28.30;58.40;;;;;;5062313;28;19908;-77
2022/10/07 14:42:13;;;;;;;;;;;28.30;58.50;;;;;;5080017;28;20089;-80
2022/10/07 14:44:42;;;;;;;;;;;28.20;59.10;;;;;;5059559;28;19904;-81
2022/10/07 14:47:13;;;;;;;;;;;28.20;58.70;;;;;;5061528;28;19944;-80
2022/10/07 14:49:40;;;;;;;;;;;28.20;58.30;;;;;;5081106;28;19934;-83